Time;durP1;ratioP1;P1;durP2;ratioP2;P2;SDS_P1;SDS_P2;PMS_P1;PMS_P2;Temp;Humidity;BMP_temperature;BMP_pressure;BME280_temperature;BME280_humidity;BME280_pressure;Samples;Min_cycle;Max_cycle;Signal;HPM_P1;HPM_P2
2021/04/03 00:00:18;;;;;;;1.90;1.07;;;;;19.50;101326.00;;;;2078603;28;20287;-46
2021/04/03 00:01:19;;;;;;;2.05;1.50;;;;;19.50;101329.00;;;;2069619;28;20308;-45
2021/04/03 00:02:19;;;;;;;1.33;1.20;;;;;19.50;101329.00;;;;2068956;28;20229;-45
2021/04/03 00:03:20;;;;;;;2.33;1.70;;;;;19.50;101326.00;;;;2078085;28;20308;-46
2021/04/03 00:04:21;;;;;;;1.88;1.30;;;;;19.50;101328.00;;;;2078259;28;20226;-47
2021/04/03 00:05:22;;;;;;;2.90;1.30;;;;;19.50;101327.00;;;;2078873;28;20205;-47
2021/04/03 00:06:22;;;;;;;2.55;1.30;;;;;19.50;101331.00;;;;2079020;28;20210;-45
2021/04/03 00:07:23;;;;;;;1.40;1.00;;;;;19.50;101337.00;;;;2079159;28;20927;-45
2021/04/03 00:08:26;;;;;;;1.97;1.40;;;;;19.50;101327.00;;;;2071722;28;20579;-45
2021/04/03 00:09:27;;;;;;;1.60;1.50;;;;;19.50;101326.00;;;;2073342;28;20224;-45
2021/04/03 00:10:29;;;;;;;1.80;1.23;;;;;19.50;101324.00;;;;2073462;28;20750;-45
2021/04/03 00:11:30;;;;;;;2.65;1.48;;;;;19.50;101320.00;;;;2065041;28;20306;-45
2021/04/03 00:12:30;;;;;;;1.00;0.90;;;;;19.50;101318.00;;;;2068747;28;20711;-45
2021/04/03 00:13:36;;;;;;;2.60;1.43;;;;;19.50;101324.00;;;;2071102;28;20206;-45
2021/04/03 00:14:36;;;;;;;3.40;1.73;;;;;19.40;101320.00;;;;2075298;28;20643;-45
2021/04/03 00:15:37;;;;;;;2.23;1.77;;;;;19.50;101332.00;;;;2078762;28;20217;-45
2021/04/03 00:16:37;;;;;;;1.90;1.40;;;;;19.50;101323.00;;;;2078173;28;20225;-45
2021/04/03 00:17:37;;;;;;;2.70;1.47;;;;;19.50;101328.00;;;;2077266;28;20695;-45
2021/04/03 00:18:38;;;;;;;1.63;1.20;;;;;19.50;101346.00;;;;2077899;28;20300;-45
2021/04/03 00:19:38;;;;;;;2.03;1.20;;;;;19.50;101327.00;;;;2077885;28;20229;-45
2021/04/03 00:20:38;;;;;;;2.60;1.53;;;;;19.40;101326.00;;;;2076732;28;20590;-45
2021/04/03 00:21:39;;;;;;;1.40;1.30;;;;;19.50;101329.00;;;;2078475;28;20224;-45
2021/04/03 00:22:39;;;;;;;2.63;1.30;;;;;19.50;101329.00;;;;2076789;28;20252;-45
2021/04/03 00:23:40;;;;;;;2.23;1.30;;;;;19.50;101331.00;;;;2078398;28;20224;-45
2021/04/03 00:24:40;;;;;;;3.27;1.50;;;;;19.50;101321.00;;;;2078833;28;20329;-45
2021/04/03 00:25:41;;;;;;;2.67;1.30;;;;;19.50;101328.00;;;;2078096;28;20245;-45
2021/04/03 00:26:41;;;;;;;2.00;1.10;;;;;19.50;101340.00;;;;2078154;28;20316;-45
2021/04/03 00:27:42;;;;;;;1.77;1.20;;;;;19.50;101329.00;;;;2077274;28;20222;-45
2021/04/03 00:28:44;;;;;;;2.25;1.65;;;;;19.50;101328.00;;;;2070010;28;20286;-47
2021/04/03 00:29:44;;;;;;;1.27;1.13;;;;;19.40;101326.00;;;;2070898;28;20219;-45
2021/04/03 00:30:44;;;;;;;2.37;1.57;;;;;19.50;101327.00;;;;2077708;28;20687;-45
2021/04/03 00:31:45;;;;;;;1.50;1.17;;;;;19.50;101326.00;;;;2078924;28;21413;-46
2021/04/03 00:32:58;;;;;;;1.87;1.50;;;;;19.50;101330.00;;;;2077301;28;20694;-45
2021/04/03 00:33:58;;;;;;;1.95;1.40;;;;;19.40;101325.00;;;;2078186;28;20221;-46
2021/04/03 00:34:59;;;;;;;1.80;1.70;;;;;19.40;101328.00;;;;2078167;28;20744;-45
2021/04/03 00:35:59;;;;;;;2.20;1.53;;;;;19.40;101333.00;;;;2078244;28;20221;-46
2021/04/03 00:36:59;;;;;;;2.53;1.80;;;;;19.40;101328.00;;;;2069280;28;20222;-45
2021/04/03 00:38:00;;;;;;;1.90;1.30;;;;;19.40;101329.00;;;;2069821;28;20230;-46
2021/04/03 00:39:01;;;;;;;1.83;1.30;;;;;19.40;101329.00;;;;2071107;28;20332;-46
2021/04/03 00:40:05;;;;;;;1.40;1.30;;;;;19.40;101332.00;;;;2072467;28;20540;-45
2021/04/03 00:41:05;;;;;;;1.83;1.10;;;;;19.40;101326.00;;;;2072637;28;20218;-45
2021/04/03 00:42:17;;;;;;;1.73;1.10;;;;;19.40;101337.00;;;;2071098;28;20305;-45
2021/04/03 00:43:19;;;;;;;1.65;1.33;;;;;19.40;101326.00;;;;2069381;28;20223;-45
2021/04/03 00:44:20;;;;;;;2.53;1.20;;;;;19.40;101333.00;;;;2070074;28;20235;-45
2021/04/03 00:45:21;;;;;;;3.20;1.50;;;;;19.50;101326.00;;;;2069234;28;20586;-45
2021/04/03 00:46:21;;;;;;;2.47;1.52;;;;;19.50;101331.00;;;;2073257;28;20576;-45
2021/04/03 00:47:22;;;;;;;1.67;1.40;;;;;19.40;101330.00;;;;2075950;28;20253;-45
2021/04/03 00:48:22;;;;;;;1.53;1.43;;;;;19.40;101320.00;;;;2078464;28;20256;-45
2021/04/03 00:49:22;;;;;;;2.27;1.30;;;;;19.40;101324.00;;;;2078167;28;20607;-45
2021/04/03 00:50:26;;;;;;;2.00;1.37;;;;;19.40;101318.00;;;;2077320;28;20233;-45
2021/04/03 00:51:26;;;;;;;2.47;1.55;;;;;19.50;101310.00;;;;2076543;28;20288;-45
2021/04/03 00:52:27;;;;;;;1.93;1.40;;;;;19.40;101320.00;;;;2074704;28;20213;-45
2021/04/03 00:53:27;;;;;;;2.57;1.50;;;;;19.40;101309.00;;;;2077519;28;20762;-45
2021/04/03 00:54:28;;;;;;;2.07;1.67;;;;;19.40;101311.00;;;;2078022;28;20249;-45
2021/04/03 00:55:28;;;;;;;3.27;1.73;;;;;19.40;101308.00;;;;2077556;28;20213;-45
2021/04/03 00:56:28;;;;;;;2.10;1.30;;;;;19.40;101315.00;;;;2076965;28;20222;-45
2021/04/03 00:57:29;;;;;;;1.97;1.40;;;;;19.40;101311.00;;;;2078126;28;20712;-45
2021/04/03 00:58:29;;;;;;;2.17;1.60;;;;;19.40;101305.00;;;;2072760;28;20210;-45
2021/04/03 00:59:30;;;;;;;2.60;2.07;;;;;19.40;101215.00;;;;2070024;28;20207;-45
2021/04/03 01:00:30;;;;;;;2.30;1.50;;;;;19.40;101311.00;;;;2068642;28;20218;-50
2021/04/03 01:01:31;;;;;;;1.70;1.43;;;;;19.40;101301.00;;;;2069226;28;20892;-49
2021/04/03 01:02:31;;;;;;;2.17;1.50;;;;;19.40;101307.00;;;;2067443;28;20563;-46
2021/04/03 01:03:31;;;;;;;2.37;1.33;;;;;19.40;101307.00;;;;2069070;28;20223;-47
2021/04/03 01:04:33;;;;;;;2.30;1.70;;;;;19.40;101303.00;;;;2069867;28;20222;-46
2021/04/03 01:05:34;;;;;;;2.35;1.55;;;;;19.40;101307.00;;;;2070161;28;20210;-45
2021/04/03 01:06:34;;;;;;;2.10;1.50;;;;;19.40;101309.00;;;;2066804;28;20306;-45
2021/04/03 01:07:34;;;;;;;4.20;1.73;;;;;19.40;101310.00;;;;2062288;28;20203;-46
2021/04/03 01:08:35;;;;;;;1.90;1.40;;;;;19.40;101310.00;;;;2075721;28;20214;-45
2021/04/03 01:09:38;;;;;;;2.53;1.30;;;;;19.40;101312.00;;;;2071695;28;20211;-45
2021/04/03 01:10:42;;;;;;;1.63;1.20;;;;;19.40;101310.00;;;;2062513;28;20227;-45
2021/04/03 01:12:11;;;;;;;1.92;1.50;;;;;19.40;101300.00;;;;2054533;28;20223;-46
2021/04/03 01:13:38;;;;;;;2.65;1.75;;;;;19.40;101299.00;;;;2069138;28;20590;-45
2021/04/03 01:14:42;;;;;;;1.77;1.40;;;;;19.40;101300.00;;;;2070726;28;20210;-47
2021/04/03 01:16:05;;;;;;;2.03;1.35;;;;;19.40;101304.00;;;;2078035;28;20233;-45
2021/04/03 01:17:23;;;;;;;2.67;1.60;;;;;19.40;101307.00;;;;2074905;28;20726;-45
2021/04/03 01:18:49;;;;;;;1.80;1.40;;;;;19.40;101306.00;;;;2073807;28;20247;-45
2021/04/03 01:19:59;;;;;;;1.60;1.50;;;;;19.40;101307.00;;;;2072488;28;20580;-45
2021/04/03 01:21:07;;;;;;;1.55;1.45;;;;;19.40;101311.00;;;;2077153;28;20233;-45
2021/04/03 01:22:52;;;;;;;2.05;1.42;;;;;19.40;101313.00;;;;2073031;28;20222;-45
2021/04/03 01:24:07;;;;;;;2.50;1.45;;;;;19.40;101322.00;;;;2077054;28;20239;-45
2021/04/03 01:25:17;;;;;;;3.47;1.88;;;;;19.40;101310.00;;;;2078686;28;20224;-45
2021/04/03 01:26:42;;;;;;;2.22;1.73;;;;;19.40;101308.00;;;;2077328;28;20225;-45
2021/04/03 01:28:14;;;;;;;2.60;1.55;;;;;19.40;101316.00;;;;2072148;28;20230;-45
2021/04/03 01:29:21;;;;;;;2.30;1.45;;;;;19.40;101312.00;;;;2077004;28;20329;-45
2021/04/03 01:30:22;;;;;;;2.65;1.50;;;;;19.40;101317.00;;;;2078037;28;20229;-45
2021/04/03 01:31:23;;;;;;;2.08;1.55;;;;;19.40;101305.00;;;;2077562;28;20705;-45
2021/04/03 01:32:25;;;;;;;1.93;1.40;;;;;19.40;101319.00;;;;2074298;28;20292;-45
2021/04/03 01:33:26;;;;;;;2.55;1.67;;;;;19.40;101313.00;;;;2070008;28;20214;-45
2021/04/03 01:34:27;;;;;;;1.67;1.30;;;;;19.40;101315.00;;;;2069633;28;21328;-45
2021/04/03 01:35:34;;;;;;;2.22;1.55;;;;;19.40;101307.00;;;;2061926;28;20227;-45
2021/04/03 01:36:36;;;;;;;2.50;1.35;;;;;19.40;101310.00;;;;2062969;28;20215;-45
2021/04/03 01:37:48;;;;;;;2.20;1.55;;;;;19.40;101313.00;;;;2077263;28;20206;-45
2021/04/03 01:39:10;;;;;;;2.92;1.63;;;;;19.40;101301.00;;;;2056200;28;20254;-45
2021/04/03 01:40:11;;;;;;;1.95;1.40;;;;;19.40;101323.00;;;;2051159;28;20307;-46
2021/04/03 01:41:13;;;;;;;1.50;1.40;;;;;19.40;101321.00;;;;2052645;28;20227;-46
2021/04/03 01:42:17;;;;;;;2.00;1.17;;;;;19.40;101313.00;;;;2062678;28;20219;-45
2021/04/03 01:43:23;;;;;;;1.80;1.33;;;;;19.40;101320.00;;;;2075630;28;20210;-45
2021/04/03 01:44:34;;;;;;;1.80;1.25;;;;;19.40;101314.00;;;;2066677;28;20584;-45
2021/04/03 01:45:34;;;;;;;2.20;1.73;;;;;19.40;101311.00;;;;2069635;28;20245;-45
2021/04/03 01:46:35;;;;;;;2.13;1.40;;;;;19.30;101321.00;;;;2060593;28;20261;-45
2021/04/03 01:47:36;;;;;;;2.93;1.60;;;;;19.40;101316.00;;;;2059205;28;20211;-45
2021/04/03 01:48:37;;;;;;;1.73;1.05;;;;;19.40;101317.00;;;;2060970;28;20463;-45
2021/04/03 01:49:37;;;;;;;1.93;1.60;;;;;19.40;101310.00;;;;2060046;28;20297;-45
2021/04/03 01:50:39;;;;;;;1.70;1.40;;;;;19.40;101319.00;;;;2069372;28;20353;-45
2021/04/03 01:51:44;;;;;;;3.00;1.33;;;;;19.40;101318.00;;;;2053639;28;20352;-45
2021/04/03 01:52:45;;;;;;;2.70;1.67;;;;;19.40;101291.00;;;;2045895;28;20217;-45
2021/04/03 01:53:45;;;;;;;2.33;2.13;;;;;19.40;101308.00;;;;2061541;28;20218;-45
2021/04/03 01:54:46;;;;;;;2.33;1.57;;;;;19.40;101308.00;;;;2068349;28;20494;-45
2021/04/03 01:55:46;;;;;;;2.27;1.30;;;;;19.40;101303.00;;;;2077556;28;20297;-46
2021/04/03 01:56:47;;;;;;;2.53;1.50;;;;;19.40;101297.00;;;;2078331;28;20225;-45
2021/04/03 01:57:49;;;;;;;2.42;1.40;;;;;19.40;101297.00;;;;2077992;28;20210;-46
2021/04/03 01:58:50;;;;;;;1.48;1.30;;;;;19.40;101305.00;;;;2069487;28;20241;-48
2021/04/03 01:59:50;;;;;;;1.70;1.30;;;;;19.40;101307.00;;;;2067527;28;20215;-45
2021/04/03 02:00:51;;;;;;;2.37;1.53;;;;;19.40;101306.00;;;;2069110;28;20219;-45
2021/04/03 02:01:53;;;;;;;2.10;1.67;;;;;19.40;101303.00;;;;2067653;28;20215;-45
2021/04/03 02:02:53;;;;;;;1.45;1.35;;;;;19.40;101307.00;;;;2068628;28;20715;-45
2021/04/03 02:03:55;;;;;;;1.87;1.40;;;;;19.30;101311.00;;;;2069020;28;20226;-45
2021/04/03 02:04:55;;;;;;;2.45;1.60;;;;;19.40;101313.00;;;;2060607;28;21134;-45
2021/04/03 02:05:55;;;;;;;1.77;1.50;;;;;19.30;101295.00;;;;2060872;28;20223;-45
2021/04/03 02:06:56;;;;;;;2.90;1.63;;;;;19.40;101313.00;;;;2055877;28;20722;-46
2021/04/03 02:07:56;;;;;;;1.77;1.40;;;;;19.40;101312.00;;;;2066798;28;20317;-45
2021/04/03 02:09:00;;;;;;;3.00;1.40;;;;;19.40;101319.00;;;;2076846;28;20229;-46
2021/04/03 02:10:00;;;;;;;2.70;1.60;;;;;19.40;101309.00;;;;2068448;28;20218;-45
2021/04/03 02:11:02;;;;;;;1.73;1.40;;;;;19.30;101316.00;;;;2072958;28;20739;-45
2021/04/03 02:12:02;;;;;;;2.95;1.35;;;;;19.30;101325.00;;;;2066450;28;20243;-45
2021/04/03 02:13:03;;;;;;;1.70;1.20;;;;;19.30;101326.00;;;;2067678;28;20322;-45
2021/04/03 02:14:04;;;;;;;2.00;1.40;;;;;19.30;101320.00;;;;2070012;28;20261;-45
2021/04/03 02:15:07;;;;;;;2.00;1.30;;;;;19.40;101320.00;;;;2069153;28;20468;-46
2021/04/03 02:16:07;;;;;;;2.05;1.40;;;;;19.40;101326.00;;;;2065818;28;20222;-45
2021/04/03 02:17:07;;;;;;;2.40;1.50;;;;;19.40;101320.00;;;;2068703;28;20218;-45
2021/04/03 02:18:08;;;;;;;1.83;1.20;;;;;19.40;101321.00;;;;2061285;28;20215;-45
2021/04/03 02:19:10;;;;;;;2.13;1.37;;;;;19.30;101318.00;;;;2069230;28;20229;-45
2021/04/03 02:20:11;;;;;;;1.92;1.45;;;;;19.40;101319.00;;;;2074477;28;20222;-45
2021/04/03 02:21:11;;;;;;;2.05;1.20;;;;;19.30;101312.00;;;;2069467;28;20316;-45
2021/04/03 02:22:13;;;;;;;2.30;1.20;;;;;19.40;101320.00;;;;2073728;28;20221;-46
2021/04/03 02:23:14;;;;;;;2.28;1.58;;;;;19.30;101320.00;;;;2060105;28;20378;-45
2021/04/03 02:24:14;;;;;;;3.70;1.57;;;;;19.30;101320.00;;;;2061197;28;20281;-45
2021/04/03 02:25:16;;;;;;;1.97;1.53;;;;;19.30;101320.00;;;;2077399;28;20218;-45
2021/04/03 02:26:16;;;;;;;2.10;1.40;;;;;19.30;101324.00;;;;2077720;28;20251;-46
2021/04/03 02:27:16;;;;;;;2.87;1.63;;;;;19.40;101318.00;;;;2077233;28;20567;-46
2021/04/03 02:28:17;;;;;;;2.23;1.80;;;;;19.30;101319.00;;;;2069251;28;20786;-46
2021/04/03 02:29:17;;;;;;;3.00;1.53;;;;;19.10;101323.00;;;;2077277;28;20206;-45
2021/04/03 02:30:19;;;;;;;2.70;1.40;;;;;19.30;101329.00;;;;2077019;28;20384;-46
2021/04/03 02:31:20;;;;;;;3.53;1.50;;;;;19.30;101328.00;;;;2077433;28;20218;-45
2021/04/03 02:32:20;;;;;;;2.00;1.30;;;;;19.30;101329.00;;;;2076783;28;20210;-45
2021/04/03 02:33:20;;;;;;;2.13;1.77;;;;;19.30;101330.00;;;;2076502;28;20213;-45
2021/04/03 02:34:21;;;;;;;1.77;1.33;;;;;19.30;101332.00;;;;2069056;28;20210;-45
2021/04/03 02:35:23;;;;;;;2.40;1.63;;;;;19.30;101332.00;;;;2069738;28;20794;-45
2021/04/03 02:36:23;;;;;;;1.88;1.23;;;;;19.30;101329.00;;;;2069919;28;20296;-45
2021/04/03 02:37:23;;;;;;;2.97;1.77;;;;;19.30;101326.00;;;;2069946;28;20207;-45
2021/04/03 02:38:24;;;;;;;2.30;1.33;;;;;19.30;101340.00;;;;2069731;28;20215;-46
2021/04/03 02:39:24;;;;;;;2.00;1.30;;;;;19.40;101331.00;;;;2072970;28;20210;-45
2021/04/03 02:40:27;;;;;;;2.53;1.37;;;;;19.30;101328.00;;;;2069864;28;20225;-46
2021/04/03 02:41:47;;;;;;;1.95;1.35;;;;;19.30;101331.00;;;;2072414;28;20243;-45
2021/04/03 02:42:56;;;;;;;2.15;1.40;;;;;19.30;101331.00;;;;2067220;28;20897;-48
2021/04/03 02:44:29;;;;;;;2.03;1.40;;;;;19.30;101332.00;;;;2077629;28;20288;-45
2021/04/03 02:45:32;;;;;;;1.67;1.30;;;;;19.30;101327.00;;;;2077055;28;20713;-45
2021/04/03 02:46:36;;;;;;;2.38;1.08;;;;;19.30;101329.00;;;;2068798;28;20214;-45
2021/04/03 02:47:42;;;;;;;2.25;1.45;;;;;19.30;101324.00;;;;2069918;28;20207;-45
2021/04/03 02:48:46;;;;;;;2.83;1.65;;;;;19.30;101329.00;;;;2068965;28;20214;-45
2021/04/03 02:50:00;;;;;;;2.40;1.50;;;;;19.40;101328.00;;;;2069813;28;20595;-45
2021/04/03 02:51:00;;;;;;;3.28;1.52;;;;;19.30;101332.00;;;;2070535;28;20551;-45
2021/04/03 02:52:01;;;;;;;2.27;1.53;;;;;19.30;101332.00;;;;2069106;28;20254;-45
2021/04/03 02:53:02;;;;;;;1.57;1.40;;;;;19.30;101335.00;;;;2076146;28;20240;-45
2021/04/03 02:54:06;;;;;;;1.40;1.20;;;;;19.30;101326.00;;;;2076996;28;20210;-45
2021/04/03 02:55:07;;;;;;;2.05;1.40;;;;;19.30;101323.00;;;;2068579;28;20226;-45
2021/04/03 02:56:08;;;;;;;2.33;1.52;;;;;19.30;101323.00;;;;2060500;28;20228;-45
2021/04/03 02:57:09;;;;;;;2.43;1.27;;;;;19.30;101326.00;;;;2068273;28;20249;-45
2021/04/03 02:58:09;;;;;;;2.30;1.50;;;;;19.30;101317.00;;;;2069565;28;20301;-45
2021/04/03 02:59:20;;;;;;;3.63;1.63;;;;;19.30;101331.00;;;;2061928;28;20223;-45
2021/04/03 03:00:20;;;;;;;1.95;1.25;;;;;19.30;101319.00;;;;2071030;28;20229;-49
2021/04/03 03:01:20;;;;;;;2.13;1.40;;;;;19.30;101321.00;;;;2062371;28;20306;-47
2021/04/03 03:02:23;;;;;;;1.83;1.40;;;;;19.30;101317.00;;;;2069623;28;20215;-45
2021/04/03 03:03:23;;;;;;;2.05;1.33;;;;;19.30;101319.00;;;;2062740;28;20217;-45
2021/04/03 03:04:24;;;;;;;1.73;1.10;;;;;19.30;101320.00;;;;2054676;28;20215;-45
2021/04/03 03:05:24;;;;;;;2.70;1.47;;;;;19.30;101323.00;;;;2062411;28;20242;-45
2021/04/03 03:06:24;;;;;;;2.33;1.40;;;;;19.30;101326.00;;;;2078962;28;20218;-45
2021/04/03 03:07:25;;;;;;;1.63;1.10;;;;;19.30;101323.00;;;;2078298;28;20702;-45
2021/04/03 03:08:25;;;;;;;2.40;1.27;;;;;19.30;101330.00;;;;2063001;28;20667;-45
2021/04/03 03:09:26;;;;;;;4.00;1.50;;;;;19.30;101319.00;;;;2067036;28;20230;-45
2021/04/03 03:10:27;;;;;;;1.50;1.20;;;;;19.30;101321.00;;;;2062722;28;20270;-45
2021/04/03 03:11:27;;;;;;;1.92;1.25;;;;;19.30;101325.00;;;;2064311;28;20303;-45
2021/04/03 03:12:28;;;;;;;2.30;1.60;;;;;19.30;101318.00;;;;2069652;28;20214;-45
2021/04/03 03:13:31;;;;;;;2.00;1.40;;;;;19.30;101326.00;;;;2078784;28;20297;-45
2021/04/03 03:14:31;;;;;;;1.65;1.30;;;;;19.30;101317.00;;;;2070620;28;20233;-45
2021/04/03 03:15:32;;;;;;;2.17;1.40;;;;;19.30;101322.00;;;;2062031;28;20215;-46
2021/04/03 03:16:32;;;;;;;2.03;1.20;;;;;19.30;101327.00;;;;2069970;28;20219;-46
2021/04/03 03:17:32;;;;;;;1.20;1.10;;;;;19.30;101333.00;;;;2070363;28;20694;-45
2021/04/03 03:18:33;;;;;;;2.50;1.40;;;;;19.30;101326.00;;;;2070802;28;20203;-45
2021/04/03 03:19:33;;;;;;;2.10;1.37;;;;;19.30;101330.00;;;;2078552;28;20753;-45
2021/04/03 03:20:33;;;;;;;2.40;1.50;;;;;19.30;101306.00;;;;2070881;28;20297;-45
2021/04/03 03:21:36;;;;;;;3.70;1.90;;;;;19.30;101328.00;;;;2070286;28;21039;-45
2021/04/03 03:22:36;;;;;;;4.07;1.60;;;;;19.30;101331.00;;;;2061655;28;20226;-45
2021/04/03 03:23:36;;;;;;;1.90;1.23;;;;;19.30;101331.00;;;;2054625;28;20693;-45
2021/04/03 03:24:37;;;;;;;1.80;1.50;;;;;19.30;101333.00;;;;2062533;28;20211;-45
2021/04/03 03:25:38;;;;;;;1.97;1.17;;;;;19.30;101326.00;;;;2062566;28;20787;-45
2021/04/03 03:26:39;;;;;;;2.65;1.35;;;;;19.30;101326.00;;;;2070426;28;20211;-46
2021/04/03 03:27:41;;;;;;;3.70;1.50;;;;;19.30;101334.00;;;;2078723;28;20216;-45
2021/04/03 03:28:42;;;;;;;2.78;1.30;;;;;19.20;101335.00;;;;2069284;28;20543;-45
2021/04/03 03:29:42;;;;;;;1.80;1.30;;;;;19.30;101336.00;;;;2070381;28;20272;-46
2021/04/03 03:30:42;;;;;;;2.10;1.53;;;;;19.30;101335.00;;;;2070010;28;20678;-45
2021/04/03 03:31:43;;;;;;;3.10;1.53;;;;;19.30;101339.00;;;;2070693;28;20215;-45
2021/04/03 03:32:43;;;;;;;1.60;1.20;;;;;19.30;101352.00;;;;2077559;28;20205;-45
2021/04/03 03:33:43;;;;;;;1.70;1.30;;;;;19.30;101337.00;;;;2078080;28;20218;-45
2021/04/03 03:34:44;;;;;;;1.57;1.10;;;;;19.30;101340.00;;;;2079266;28;20252;-45
2021/04/03 03:35:44;;;;;;;1.60;1.40;;;;;19.30;101334.00;;;;2063296;28;20286;-45
2021/04/03 03:36:45;;;;;;;1.30;1.07;;;;;19.30;101337.00;;;;2062452;28;20215;-45
2021/04/03 03:37:46;;;;;;;2.47;1.20;;;;;19.10;101344.00;;;;2062169;28;20262;-45
2021/04/03 03:38:47;;;;;;;2.43;1.40;;;;;19.30;101340.00;;;;2069616;28;20791;-45
2021/04/03 03:39:47;;;;;;;3.05;1.60;;;;;19.30;101339.00;;;;2069966;28;20488;-45
2021/04/03 03:40:48;;;;;;;1.70;1.00;;;;;19.30;101334.00;;;;2067640;28;20294;-45
2021/04/03 03:41:48;;;;;;;1.83;1.10;;;;;19.30;101339.00;;;;2071375;28;20216;-46
2021/04/03 03:42:49;;;;;;;2.80;1.33;;;;;19.30;101328.00;;;;2069271;28;20221;-45
2021/04/03 03:43:49;;;;;;;2.30;1.37;;;;;19.30;101340.00;;;;2069995;28;20222;-45
2021/04/03 03:44:51;;;;;;;1.40;1.07;;;;;19.30;101336.00;;;;2062073;28;20218;-45
2021/04/03 03:45:51;;;;;;;2.75;1.30;;;;;19.30;101323.00;;;;2061663;28;20215;-45
2021/04/03 03:46:51;;;;;;;2.23;1.13;;;;;19.20;101335.00;;;;2062029;28;20227;-45
2021/04/03 03:47:54;;;;;;;2.00;1.57;;;;;19.30;101339.00;;;;2070163;28;20215;-45
2021/04/03 03:48:54;;;;;;;2.78;1.50;;;;;19.30;101341.00;;;;2071256;28;20284;-45
2021/04/03 03:49:55;;;;;;;3.17;1.30;;;;;19.20;101340.00;;;;2070989;28;20972;-45
2021/04/03 03:50:55;;;;;;;2.20;1.10;;;;;19.30;101346.00;;;;2070078;28;20250;-46
2021/04/03 03:51:56;;;;;;;2.17;1.70;;;;;19.30;101339.00;;;;2070118;28;20334;-45
2021/04/03 03:52:56;;;;;;;2.33;1.13;;;;;19.30;101340.00;;;;2069892;28;20215;-44
2021/04/03 03:53:56;;;;;;;2.83;1.50;;;;;19.30;101356.00;;;;2071422;28;20223;-44
2021/04/03 03:54:57;;;;;;;2.07;1.10;;;;;19.30;101363.00;;;;2070896;28;20587;-44
2021/04/03 03:55:57;;;;;;;2.90;1.50;;;;;19.30;101358.00;;;;2069337;28;20239;-46
2021/04/03 03:56:57;;;;;;;1.97;1.20;;;;;19.30;101357.00;;;;2070345;28;20227;-45
2021/04/03 03:57:58;;;;;;;4.40;1.50;;;;;19.30;101366.00;;;;2070225;28;20250;-48
2021/04/03 03:58:58;;;;;;;2.77;1.67;;;;;19.20;101360.00;;;;2074669;28;20218;-48
2021/04/03 03:59:59;;;;;;;2.00;1.30;;;;;19.30;101348.00;;;;2071043;28;20246;-49
2021/04/03 04:00:59;;;;;;;2.07;1.30;;;;;19.30;101352.00;;;;2075953;28;20659;-49
2021/04/03 04:01:59;;;;;;;2.10;1.40;;;;;19.30;101357.00;;;;2078347;28;20222;-48
2021/04/03 04:03:00;;;;;;;2.73;1.30;;;;;19.20;101352.00;;;;2077356;28;20226;-48
2021/04/03 04:04:00;;;;;;;2.03;1.20;;;;;19.30;101352.00;;;;2078364;28;20268;-46
2021/04/03 04:05:00;;;;;;;1.83;1.20;;;;;19.30;101349.00;;;;2078223;28;20217;-45
2021/04/03 04:06:01;;;;;;;3.00;1.40;;;;;19.30;101349.00;;;;2076696;28;20240;-45
2021/04/03 04:07:02;;;;;;;1.97;1.20;;;;;19.30;101344.00;;;;2079263;28;20707;-45
2021/04/03 04:08:02;;;;;;;2.03;1.30;;;;;19.20;101347.00;;;;2073032;28;20306;-46
2021/04/03 04:09:04;;;;;;;2.03;1.13;;;;;19.20;101350.00;;;;2071243;28;20221;-44
2021/04/03 04:10:07;;;;;;;3.20;1.27;;;;;19.20;101347.00;;;;2072263;28;20763;-44
2021/04/03 04:11:07;;;;;;;2.17;1.25;;;;;19.20;101348.00;;;;2072230;28;20252;-46
2021/04/03 04:12:08;;;;;;;2.40;1.33;;;;;19.20;101355.00;;;;2071566;28;20907;-45
2021/04/03 04:13:09;;;;;;;2.00;1.27;;;;;19.30;101356.00;;;;2069726;28;20230;-44
2021/04/03 04:14:09;;;;;;;3.23;1.50;;;;;19.30;101358.00;;;;2068739;28;21336;-45
2021/04/03 04:15:10;;;;;;;3.10;1.57;;;;;19.30;101360.00;;;;2070902;28;20210;-46
2021/04/03 04:16:10;;;;;;;1.43;1.03;;;;;19.30;101356.00;;;;2070796;28;20234;-46
2021/04/03 04:17:10;;;;;;;2.20;1.27;;;;;19.30;101359.00;;;;2070530;28;20218;-46
2021/04/03 04:18:11;;;;;;;3.30;1.73;;;;;19.20;101356.00;;;;2070374;28;20222;-45
2021/04/03 04:19:11;;;;;;;1.63;1.20;;;;;19.20;101356.00;;;;2070238;28;20215;-45
2021/04/03 04:20:12;;;;;;;2.57;1.40;;;;;19.20;101347.00;;;;2068832;28;20219;-46
2021/04/03 04:21:12;;;;;;;2.80;1.52;;;;;19.20;101357.00;;;;2070183;28;20219;-46
2021/04/03 04:22:13;;;;;;;1.90;1.20;;;;;19.20;101362.00;;;;2070596;28;20215;-44
2021/04/03 04:23:13;;;;;;;2.00;1.50;;;;;19.20;101363.00;;;;2068921;28;20215;-46
2021/04/03 04:24:13;;;;;;;2.23;1.10;;;;;19.20;101373.00;;;;2070341;28;21098;-44
2021/04/03 04:25:14;;;;;;;2.70;1.40;;;;;19.20;101366.00;;;;2070380;28;20206;-46
2021/04/03 04:26:14;;;;;;;2.83;1.50;;;;;19.20;101372.00;;;;2070266;28;20222;-45
2021/04/03 04:27:15;;;;;;;1.97;1.30;;;;;19.20;101327.00;;;;2070783;28;20309;-45
2021/04/03 04:28:15;;;;;;;2.13;1.30;;;;;19.20;101379.00;;;;2069038;28;20627;-45
2021/04/03 04:29:16;;;;;;;2.10;1.40;;;;;19.20;101376.00;;;;2069777;28;20239;-45
2021/04/03 04:30:16;;;;;;;2.40;1.30;;;;;19.20;101380.00;;;;2069503;28;20227;-46
2021/04/03 04:31:16;;;;;;;3.27;1.50;;;;;19.20;101380.00;;;;2070122;28;20987;-45
2021/04/03 04:32:17;;;;;;;2.10;1.30;;;;;19.20;101379.00;;;;2070449;28;20687;-45
2021/04/03 04:33:17;;;;;;;2.20;1.57;;;;;19.20;101372.00;;;;2070035;28;20218;-44
2021/04/03 04:34:18;;;;;;;2.13;1.10;;;;;19.20;101381.00;;;;2070536;28;20226;-44
2021/04/03 04:35:18;;;;;;;2.27;1.33;;;;;19.20;101381.00;;;;2070697;28;20222;-45
2021/04/03 04:36:18;;;;;;;3.30;1.43;;;;;19.20;101391.00;;;;2070452;28;20210;-45
2021/04/03 04:37:19;;;;;;;3.73;1.37;;;;;19.20;101390.00;;;;2071021;28;20214;-46
2021/04/03 04:38:19;;;;;;;2.43;1.07;;;;;19.20;101389.00;;;;2070848;28;20215;-45
2021/04/03 04:39:19;;;;;;;2.60;1.43;;;;;19.20;101397.00;;;;2070859;28;20222;-45
2021/04/03 04:40:20;;;;;;;2.93;1.37;;;;;19.20;101393.00;;;;2072001;28;20568;-45
2021/04/03 04:41:20;;;;;;;1.57;0.90;;;;;19.20;101385.00;;;;2071717;28;20215;-46
2021/04/03 04:42:20;;;;;;;2.10;1.20;;;;;19.20;101385.00;;;;2070206;28;20301;-45
2021/04/03 04:43:21;;;;;;;2.97;1.20;;;;;19.20;101391.00;;;;2070083;28;20229;-46
2021/04/03 04:44:21;;;;;;;3.20;1.30;;;;;19.20;101386.00;;;;2074746;28;20214;-44
2021/04/03 04:45:22;;;;;;;2.00;1.40;;;;;19.20;101391.00;;;;2078503;28;20267;-45
2021/04/03 04:46:22;;;;;;;3.97;1.70;;;;;19.20;101392.00;;;;2078162;28;20279;-46
2021/04/03 04:47:22;;;;;;;1.20;0.80;;;;;19.20;101400.00;;;;2078313;28;20218;-46
2021/04/03 04:48:23;;;;;;;1.30;1.10;;;;;19.20;101398.00;;;;2078517;28;20877;-45
2021/04/03 04:49:23;;;;;;;2.70;1.30;;;;;19.20;101403.00;;;;2078170;28;20214;-45
2021/04/03 04:50:23;;;;;;;2.97;1.27;;;;;19.20;101393.00;;;;2074318;28;20223;-47
2021/04/03 04:51:25;;;;;;;3.07;1.37;;;;;19.20;101394.00;;;;2070036;28;20256;-44
2021/04/03 04:52:25;;;;;;;2.83;1.50;;;;;19.20;101397.00;;;;2068932;28;20214;-46
2021/04/03 04:53:26;;;;;;;2.20;1.50;;;;;19.20;101398.00;;;;2069701;28;21869;-44
2021/04/03 04:54:26;;;;;;;3.23;1.60;;;;;19.20;101398.00;;;;2069524;28;20228;-46
2021/04/03 04:55:27;;;;;;;2.47;1.30;;;;;19.20;101396.00;;;;2073573;28;20550;-46
2021/04/03 04:56:27;;;;;;;1.87;1.20;;;;;19.20;101397.00;;;;2077944;28;21008;-45
2021/04/03 04:57:27;;;;;;;2.03;1.20;;;;;19.20;101400.00;;;;2078264;28;20218;-45
2021/04/03 04:58:28;;;;;;;2.33;1.17;;;;;19.20;101395.00;;;;2078255;28;20213;-45
2021/04/03 04:59:28;;;;;;;1.70;1.13;;;;;19.20;101402.00;;;;2078558;28;20548;-44
2021/04/03 05:00:28;;;;;;;2.23;1.10;;;;;19.20;101408.00;;;;2079080;28;20214;-45
2021/04/03 05:01:29;;;;;;;1.70;1.10;;;;;19.20;101402.00;;;;2078665;28;20221;-46
2021/04/03 05:02:29;;;;;;;4.43;1.53;;;;;19.20;101410.00;;;;2077262;28;20236;-45
2021/04/03 05:03:30;;;;;;;3.00;1.20;;;;;19.20;101409.00;;;;2078561;28;20210;-46
2021/04/03 05:04:30;;;;;;;1.63;1.20;;;;;19.20;101412.00;;;;2078698;28;20220;-45
2021/04/03 05:05:31;;;;;;;2.60;1.00;;;;;19.20;101419.00;;;;2078602;28;20457;-45
2021/04/03 05:06:31;;;;;;;3.43;1.40;;;;;19.20;101419.00;;;;2078608;28;20897;-46
2021/04/03 05:07:32;;;;;;;1.57;1.10;;;;;19.20;101416.00;;;;2078763;28;20224;-45